createdAt,value
2022-09-04T00:03:05.272Z,69.79
2022-09-04T00:08:05.976Z,69.79
2022-09-04T00:13:05.133Z,69.89
2022-09-04T00:18:05.068Z,69.89
2022-09-04T00:23:05.004Z,69.99
2022-09-04T00:28:05.925Z,69.99
2022-09-04T00:33:04.937Z,70.09
2022-09-04T00:38:04.829Z,70.19
2022-09-04T00:43:04.757Z,70.23
2022-09-04T00:48:04.700Z,70.32
2022-09-04T00:53:06.110Z,70.32
2022-09-04T00:58:04.554Z,70.43
2022-09-04T01:03:04.481Z,70.53
2022-09-04T01:08:04.414Z,70.53
2022-09-04T01:13:04.364Z,70.62
2022-09-04T01:18:04.280Z,70.62
2022-09-04T01:23:04.287Z,70.73
2022-09-04T01:28:04.156Z,70.73
2022-09-04T01:33:04.098Z,70.73
2022-09-04T01:38:04.024Z,70.83
2022-09-04T01:43:03.991Z,70.93
2022-09-04T01:48:03.965Z,70.96
2022-09-04T01:53:03.862Z,71.03
2022-09-04T01:58:03.792Z,71.06
2022-09-04T02:03:03.745Z,71.16
2022-09-04T02:08:03.684Z,71.16
2022-09-04T02:13:03.623Z,71.26
2022-09-04T02:18:03.586Z,71.26
2022-09-04T02:23:03.520Z,71.36
2022-09-04T02:28:03.444Z,71.46
2022-09-04T02:33:03.373Z,71.46
2022-09-04T02:38:03.322Z,71.46
2022-09-04T02:43:03.209Z,71.56
2022-09-04T02:48:03.183Z,71.56
2022-09-04T02:53:03.081Z,71.66
2022-09-04T02:58:03.052Z,71.66
2022-09-04T03:03:02.969Z,71.77
2022-09-04T03:08:02.956Z,71.66
2022-09-04T03:13:02.805Z,71.77
2022-09-04T03:18:02.754Z,71.80
2022-09-04T03:23:02.709Z,71.90
2022-09-04T03:28:03.463Z,71.90
2022-09-04T03:33:02.581Z,71.90
2022-09-04T03:38:02.503Z,72.00
2022-09-04T03:43:02.438Z,72.00
2022-09-04T03:48:02.383Z,72.00
2022-09-04T03:53:02.299Z,72.09
2022-09-04T03:58:02.296Z,72.09
2022-09-04T04:03:02.247Z,72.09
2022-09-04T04:08:02.121Z,72.20
2022-09-04T04:13:02.063Z,72.20
2022-09-04T04:18:02.027Z,72.20
2022-09-04T04:23:01.915Z,72.30
2022-09-04T04:28:02.052Z,72.30
2022-09-04T04:33:01.810Z,72.30
2022-09-04T04:38:01.733Z,72.30
2022-09-04T04:43:01.678Z,72.30
2022-09-04T04:48:01.684Z,72.30
2022-09-04T04:53:01.546Z,72.30
2022-09-04T04:58:01.472Z,72.30
2022-09-04T05:03:01.566Z,72.30
2022-09-04T05:08:03.933Z,72.20
2022-09-04T05:13:02.337Z,72.20
2022-09-04T05:18:01.230Z,72.09
2022-09-04T05:23:01.158Z,72.20
2022-09-04T05:28:01.124Z,72.20
2022-09-04T05:33:01.026Z,72.27
2022-09-04T05:38:00.952Z,72.30
2022-09-04T05:43:00.896Z,72.20
2022-09-04T05:48:00.850Z,72.06
2022-09-04T05:53:00.746Z,71.96
2022-09-04T05:58:00.727Z,71.96
2022-09-04T06:03:00.718Z,71.86
2022-09-04T06:08:00.620Z,71.77
2022-09-04T06:13:00.522Z,71.86
2022-09-04T06:18:00.444Z,71.77
2022-09-04T06:23:03.053Z,71.77
2022-09-04T06:28:00.325Z,71.77
2022-09-04T06:33:00.260Z,71.66
2022-09-04T06:38:00.271Z,71.66
2022-09-04T06:43:00.147Z,71.66
2022-09-04T06:48:00.101Z,71.56
2022-09-04T06:53:03.990Z,71.56
2022-09-04T06:58:00.337Z,71.46
2022-09-04T07:02:59.931Z,71.46
2022-09-04T07:07:59.873Z,71.33
2022-09-04T07:12:59.744Z,71.33
2022-09-04T07:18:01.430Z,71.43
2022-09-04T07:22:59.654Z,71.43
2022-09-04T07:27:59.708Z,71.43
2022-09-04T07:32:59.539Z,71.33
2022-09-04T07:37:59.449Z,71.23
2022-09-04T07:42:59.597Z,71.00
2022-09-04T07:47:59.320Z,70.89
2022-09-04T07:53:03.038Z,70.83
2022-09-04T07:58:00.203Z,70.69
2022-09-04T08:02:59.130Z,70.59
2022-09-04T08:07:59.051Z,70.59
2022-09-04T08:12:59.033Z,70.50
2022-09-04T08:17:58.983Z,70.39
2022-09-04T08:22:58.924Z,70.29
2022-09-04T08:27:58.828Z,70.19
2022-09-04T08:32:58.744Z,70.19
2022-09-04T08:37:58.696Z,70.06
2022-09-04T08:42:58.653Z,70.66
2022-09-04T08:47:58.585Z,70.86
2022-09-04T08:53:03.141Z,71.06
2022-09-04T08:57:59.452Z,71.46
2022-09-04T09:02:58.436Z,71.66
2022-09-04T09:07:58.326Z,71.62
2022-09-04T09:12:58.245Z,71.73
2022-09-04T09:17:58.506Z,71.73
2022-09-04T09:22:58.119Z,71.73
2022-09-04T09:27:58.056Z,71.49
2022-09-04T09:32:58.008Z,71.19
2022-09-04T09:38:02.347Z,70.99
2022-09-04T09:42:58.870Z,70.89
2022-09-04T09:47:57.820Z,70.89
2022-09-04T09:52:57.738Z,70.76
2022-09-04T09:57:57.680Z,70.76
2022-09-04T10:02:57.611Z,71.36
2022-09-04T10:07:57.613Z,71.36
2022-09-04T10:12:57.498Z,71.16
2022-09-04T10:17:57.436Z,70.86
2022-09-04T10:22:57.348Z,70.46
2022-09-04T10:27:57.310Z,70.26
2022-09-04T10:32:57.241Z,69.96
2022-09-04T10:37:57.226Z,69.76
2022-09-04T10:42:57.115Z,69.56
2022-09-04T10:47:57.046Z,69.36
2022-09-04T10:52:57.160Z,69.23
2022-09-04T10:57:56.983Z,69.06
2022-09-04T11:02:56.879Z,68.93
2022-09-04T11:07:56.823Z,68.82
2022-09-04T11:12:56.741Z,68.73
2022-09-04T11:17:56.660Z,68.63
2022-09-04T11:22:56.688Z,68.82
2022-09-04T11:27:56.573Z,69.23
2022-09-04T11:32:56.489Z,69.43
2022-09-04T11:37:57.906Z,69.53
2022-09-04T11:42:56.357Z,69.32
2022-09-04T11:47:56.300Z,69.49
2022-09-04T11:52:56.549Z,69.39
2022-09-04T11:57:56.152Z,69.20
2022-09-04T12:02:56.083Z,69.09
2022-09-04T12:07:56.014Z,68.99
2022-09-04T12:12:56.030Z,68.96
2022-09-04T12:17:55.870Z,68.76
2022-09-04T12:22:55.832Z,68.56
2022-09-04T12:27:55.776Z,68.46
2022-09-04T12:32:55.683Z,68.26
2022-09-04T12:37:55.630Z,68.23
2022-09-04T12:42:55.565Z,68.03
2022-09-04T12:47:57.328Z,68.03
2022-09-04T12:52:55.713Z,67.93
2022-09-04T12:57:55.413Z,67.73
2022-09-04T13:02:55.523Z,67.50
2022-09-04T13:07:55.314Z,67.30
2022-09-04T13:12:55.247Z,67.20
2022-09-04T13:17:55.130Z,67.10
2022-09-04T13:22:55.068Z,67.00
2022-09-04T13:27:55.012Z,66.77
2022-09-04T13:32:54.941Z,66.57
2022-09-04T13:37:55.074Z,66.47
2022-09-04T13:42:54.833Z,66.27
2022-09-04T13:47:54.762Z,66.17
2022-09-04T13:52:55.635Z,66.17
2022-09-04T13:57:54.635Z,66.07
2022-09-04T14:02:54.570Z,66.17
2022-09-04T14:07:54.508Z,66.17
2022-09-04T14:12:54.478Z,66.07
2022-09-04T14:17:54.371Z,66.17
2022-09-04T14:22:55.093Z,66.17
2022-09-04T14:27:54.276Z,66.17
2022-09-04T14:32:57.683Z,66.07
2022-09-04T14:37:54.121Z,66.17
2022-09-04T14:42:54.046Z,66.07
2022-09-04T14:47:54.023Z,66.17
2022-09-04T14:52:53.935Z,66.17
2022-09-04T14:57:53.873Z,66.10
2022-09-04T15:02:53.790Z,66.20
2022-09-04T15:07:53.754Z,66.17
2022-09-04T15:12:53.701Z,66.20
2022-09-04T15:17:53.621Z,66.20
2022-09-04T15:22:53.548Z,66.20
2022-09-04T15:27:53.483Z,66.30
2022-09-04T15:32:53.418Z,66.30
2022-09-04T15:37:53.362Z,66.30
2022-09-04T15:42:53.439Z,66.40
2022-09-04T15:47:53.287Z,66.30
2022-09-04T15:52:53.160Z,66.30
2022-09-04T15:57:53.125Z,66.30
2022-09-04T16:02:53.094Z,66.30
2022-09-04T16:07:54.536Z,66.30
2022-09-04T16:12:52.912Z,66.30
2022-09-04T16:17:52.872Z,66.30
2022-09-04T16:22:52.798Z,66.40
2022-09-04T16:27:52.739Z,66.43
2022-09-04T16:32:52.636Z,66.53
2022-09-04T16:37:52.609Z,66.63
2022-09-04T16:42:52.527Z,66.63
2022-09-04T16:47:52.513Z,66.63
2022-09-04T16:52:58.865Z,66.73
2022-09-04T16:57:53.368Z,66.73
2022-09-04T17:02:52.442Z,66.73
2022-09-04T17:07:52.218Z,66.73
2022-09-04T17:12:52.144Z,66.83
2022-09-04T17:17:52.087Z,66.83
2022-09-04T17:28:56.730Z,66.83
2022-09-04T17:29:13.600Z,66.96
2022-09-04T17:34:10.497Z,66.96
2022-09-04T17:40:37.880Z,66.86
2022-09-04T17:43:14.819Z,66.86
2022-09-04T17:47:52.690Z,66.96
2022-09-04T17:52:51.621Z,66.96
2022-09-04T17:57:51.928Z,67.10
2022-09-04T18:02:51.794Z,67.19
2022-09-04T18:08:08.493Z,67.19
2022-09-04T18:12:52.375Z,67.30
2022-09-04T18:17:51.317Z,67.40
2022-09-04T18:22:51.277Z,67.49
2022-09-04T18:27:51.221Z,67.49
2022-09-04T18:37:24.432Z,67.63
2022-09-04T18:37:52.093Z,67.72
2022-09-04T18:50:20.838Z,67.72
2022-09-04T18:50:36.445Z,67.83
2022-09-04T18:52:51.895Z,67.83
2022-09-04T18:57:50.818Z,67.93
2022-09-04T19:02:51.453Z,68.03
2022-09-04T19:07:50.674Z,68.13
2022-09-04T19:12:50.643Z,68.16
2022-09-04T19:17:50.570Z,68.26
2022-09-04T19:22:50.517Z,68.36
2022-09-04T19:27:54.942Z,68.36
2022-09-04T19:32:50.402Z,68.46
2022-09-04T19:42:12.848Z,68.56
2022-09-04T19:46:00.062Z,68.66
2022-09-04T19:47:51.278Z,68.76
2022-09-04T19:53:31.774Z,68.79
2022-09-04T19:57:51.066Z,68.89
2022-09-04T20:02:50.029Z,68.89
2022-09-04T20:07:49.943Z,68.99
2022-09-04T20:12:51.186Z,69.09
2022-09-04T20:17:49.824Z,69.09
2022-09-04T20:22:49.755Z,69.19
2022-09-04T20:27:49.691Z,69.29
2022-09-04T20:32:55.741Z,69.29
2022-09-04T20:37:53.419Z,69.39
2022-09-04T20:42:56.657Z,69.39
2022-09-04T20:52:45.540Z,69.53
2022-09-04T20:53:09.500Z,69.62
2022-09-04T21:03:13.652Z,69.73
2022-09-04T21:03:21.362Z,69.73
2022-09-04T21:07:50.181Z,69.82
2022-09-04T21:12:49.115Z,69.82
2022-09-04T21:17:50.048Z,69.93
2022-09-04T21:22:48.982Z,70.03
2022-09-04T21:27:48.917Z,70.03
2022-09-04T21:32:48.852Z,70.12
2022-09-04T21:37:48.948Z,70.16
2022-09-04T21:42:48.772Z,70.26
2022-09-04T21:47:48.712Z,70.26
2022-09-04T21:52:56.123Z,70.36
2022-09-04T22:02:26.805Z,70.36
2022-09-04T22:02:55.635Z,70.46
2022-09-04T22:12:18.257Z,70.46
2022-09-04T22:13:42.211Z,70.56
2022-09-04T22:17:49.289Z,70.56
2022-09-04T22:22:48.247Z,70.66
2022-09-04T22:28:04.572Z,70.66
2022-09-04T22:32:49.133Z,70.66
2022-09-04T22:37:48.055Z,70.76
2022-09-04T22:42:48.012Z,70.76
2022-09-04T22:47:47.913Z,70.86
2022-09-04T22:52:47.851Z,70.89
2022-09-04T22:57:47.791Z,70.86
2022-09-04T23:03:07.771Z,71.00
2022-09-04T23:13:42.345Z,71.00
2022-09-04T23:14:02.711Z,71.00
2022-09-04T23:19:07.333Z,71.09
2022-09-04T23:26:50.370Z,71.09
2022-09-04T23:27:48.380Z,71.19
2022-09-04T23:32:47.353Z,71.19
2022-09-04T23:37:50.262Z,71.30
2022-09-04T23:42:48.517Z,71.30
2022-09-04T23:47:49.477Z,71.30
2022-09-04T23:52:49.149Z,71.39
2022-09-04T23:57:47.000Z,71.39
